createdAt,value
2023-06-16T00:00:12.997Z,9.90
2023-06-16T00:03:03.067Z,8.40
2023-06-16T00:05:32.456Z,9.10
2023-06-16T00:08:02.089Z,9.40
2023-06-16T00:10:31.425Z,8.50
2023-06-16T00:12:59.773Z,9.00
2023-06-16T00:15:27.881Z,8.70
2023-06-16T00:17:58.079Z,8.70
2023-06-16T00:20:27.216Z,8.30
2023-06-16T00:22:56.222Z,8.90
2023-06-16T00:25:24.733Z,8.80
2023-06-16T00:27:53.074Z,8.60
2023-06-16T00:30:21.560Z,9.10
2023-06-16T00:32:49.902Z,9.50
2023-06-16T00:35:18.223Z,9.00
2023-06-16T00:37:46.259Z,9.10
2023-06-16T00:40:14.436Z,8.90
2023-06-16T00:42:42.610Z,8.70
2023-06-16T00:45:11.855Z,8.60
2023-06-16T00:47:40.114Z,8.90
2023-06-16T00:50:09.134Z,8.80
2023-06-16T00:52:38.967Z,8.40
2023-06-16T00:55:10.163Z,8.90
2023-06-16T00:57:40.418Z,8.90
2023-06-16T01:00:12.534Z,8.80
2023-06-16T01:02:41.377Z,8.70
2023-06-16T01:05:10.139Z,8.90
2023-06-16T01:07:53.128Z,8.50
2023-06-16T01:10:54.363Z,8.70
2023-06-16T01:13:29.202Z,8.80
2023-06-16T01:16:03.001Z,8.50
2023-06-16T01:18:34.082Z,8.80
2023-06-16T01:21:22.841Z,8.50
2023-06-16T01:24:09.310Z,8.40
2023-06-16T01:26:41.491Z,8.70
2023-06-16T01:29:12.395Z,8.80
2023-06-16T01:31:42.899Z,9.10
2023-06-16T01:34:13.414Z,8.60
2023-06-16T01:36:43.556Z,8.90
2023-06-16T01:39:15.221Z,9.00
2023-06-16T01:41:44.733Z,8.90
2023-06-16T01:44:13.767Z,8.80
2023-06-16T01:46:43.044Z,9.00
2023-06-16T01:49:13.117Z,8.80
2023-06-16T01:51:41.422Z,9.10
2023-06-16T01:54:09.685Z,9.40
2023-06-16T01:56:37.799Z,9.80
2023-06-16T02:02:17.343Z,10.40
2023-06-16T02:04:49.449Z,11.20
2023-06-16T02:07:23.245Z,10.60
2023-06-16T02:09:52.514Z,10.80
2023-06-16T02:12:20.722Z,10.70
2023-06-16T02:14:49.426Z,10.00
2023-06-16T02:17:17.739Z,9.60
2023-06-16T02:19:46.235Z,9.10
2023-06-16T02:22:14.248Z,10.30
2023-06-16T02:24:43.024Z,10.80
2023-06-16T02:27:11.050Z,10.60
2023-06-16T02:29:39.090Z,10.70
2023-06-16T02:32:07.672Z,10.20
2023-06-16T02:34:35.784Z,10.30
2023-06-16T02:37:04.291Z,10.30
2023-06-16T02:39:33.028Z,10.10
2023-06-16T02:42:01.257Z,10.40
2023-06-16T02:44:29.323Z,11.00
2023-06-16T02:46:58.364Z,10.90
2023-06-16T02:49:27.626Z,10.50
2023-06-16T02:51:56.363Z,10.10
2023-06-16T02:54:24.530Z,10.50
2023-06-16T02:56:52.712Z,10.40
2023-06-16T02:59:22.047Z,11.20
2023-06-16T03:01:50.281Z,10.40
2023-06-16T03:04:28.614Z,10.30
2023-06-16T03:07:07.367Z,10.80
2023-06-16T03:09:40.174Z,10.60
2023-06-16T03:12:10.004Z,10.30
2023-06-16T03:14:42.797Z,10.40
2023-06-16T03:17:22.912Z,10.40
2023-06-16T03:19:51.933Z,10.30
2023-06-16T03:22:27.215Z,9.60
2023-06-16T03:24:56.072Z,9.30
2023-06-16T03:27:24.862Z,9.60
2023-06-16T03:29:59.047Z,9.90
2023-06-16T03:32:28.802Z,10.40
2023-06-16T03:34:57.398Z,10.10
2023-06-16T03:37:25.568Z,10.60
2023-06-16T03:39:53.706Z,11.70
2023-06-16T03:42:22.192Z,13.90
2023-06-16T03:44:50.629Z,14.60
2023-06-16T03:47:20.616Z,13.10
2023-06-16T03:49:48.688Z,12.20
2023-06-16T03:52:16.921Z,11.40
2023-06-16T03:54:45.062Z,11.20
2023-06-16T03:57:14.643Z,11.20
2023-06-16T03:59:43.288Z,10.90
2023-06-16T04:02:12.065Z,11.30
2023-06-16T04:04:46.590Z,11.50
2023-06-16T04:07:15.228Z,11.30
2023-06-16T04:09:43.749Z,10.70
2023-06-16T04:12:12.870Z,10.50
2023-06-16T04:14:41.844Z,9.70
2023-06-16T04:17:10.310Z,10.90
2023-06-16T04:19:39.505Z,10.00
2023-06-16T04:22:08.110Z,10.30
2023-06-16T04:24:46.446Z,10.30
2023-06-16T04:27:14.693Z,10.10
2023-06-16T04:29:43.479Z,9.30
2023-06-16T04:32:15.543Z,9.20
2023-06-16T04:34:46.396Z,9.10
2023-06-16T04:37:15.783Z,9.50
2023-06-16T04:39:43.914Z,8.70
2023-06-16T04:42:14.911Z,9.30
2023-06-16T04:44:43.314Z,9.10
2023-06-16T04:47:13.981Z,8.90
2023-06-16T04:49:42.692Z,9.00
2023-06-16T04:52:10.916Z,9.10
2023-06-16T04:54:39.046Z,8.90
2023-06-16T04:57:09.403Z,9.70
2023-06-16T04:59:37.537Z,9.40
2023-06-16T05:02:07.294Z,8.90
2023-06-16T05:04:35.623Z,9.10
2023-06-16T05:07:04.964Z,9.20
2023-06-16T05:09:33.716Z,10.10
2023-06-16T05:12:02.088Z,8.70
2023-06-16T05:14:32.753Z,9.00
2023-06-16T05:17:01.831Z,8.90
2023-06-16T05:19:31.075Z,8.60
2023-06-16T05:22:01.200Z,8.90
2023-06-16T05:24:32.096Z,9.30
2023-06-16T05:27:01.151Z,8.90
2023-06-16T05:29:30.457Z,9.20
2023-06-16T05:31:59.546Z,9.70
2023-06-16T05:34:27.719Z,9.40
2023-06-16T05:36:55.977Z,9.60
2023-06-16T05:39:24.631Z,9.50
2023-06-16T05:41:53.777Z,9.60
2023-06-16T05:44:22.847Z,9.20
2023-06-16T05:46:51.771Z,9.30
2023-06-16T05:49:20.344Z,9.70
2023-06-16T05:51:48.468Z,10.00
2023-06-16T05:54:16.768Z,10.00
2023-06-16T05:56:44.866Z,10.20
2023-06-16T05:59:12.926Z,10.40
2023-06-16T06:01:41.096Z,10.60
2023-06-16T06:04:12.302Z,10.80
2023-06-16T06:06:40.683Z,10.30
2023-06-16T06:09:08.838Z,10.90
2023-06-16T06:11:37.734Z,10.60
2023-06-16T06:14:05.942Z,11.00
2023-06-16T06:16:34.061Z,11.30
2023-06-16T06:19:02.201Z,11.30
2023-06-16T06:21:30.225Z,11.90
2023-06-16T06:23:59.200Z,11.70
2023-06-16T06:26:27.431Z,11.20
2023-06-16T06:28:55.796Z,12.00
2023-06-16T06:31:24.131Z,11.90
2023-06-16T06:33:52.360Z,12.40
2023-06-16T06:36:31.212Z,12.60
2023-06-16T06:39:00.495Z,11.80
2023-06-16T06:41:29.092Z,12.50
2023-06-16T06:44:02.263Z,13.40
2023-06-16T06:46:49.009Z,13.20
2023-06-16T06:49:17.301Z,13.50
2023-06-16T06:51:45.520Z,14.40
2023-06-16T06:54:13.684Z,13.90
2023-06-16T06:56:41.793Z,14.70
2023-06-16T06:59:09.925Z,14.30
2023-06-16T07:01:39.113Z,13.60
2023-06-16T07:04:07.880Z,14.30
2023-06-16T07:06:36.924Z,15.10
2023-06-16T07:09:05.171Z,14.40
2023-06-16T07:11:35.343Z,13.50
2023-06-16T07:14:03.796Z,14.30
2023-06-16T07:16:32.096Z,13.60
2023-06-16T07:19:00.455Z,13.80
2023-06-16T07:21:29.242Z,13.10
2023-06-16T07:23:57.551Z,12.80
2023-06-16T07:26:26.308Z,13.60
2023-06-16T07:28:54.565Z,13.40
2023-06-16T07:31:22.935Z,13.20
2023-06-16T07:33:51.091Z,12.80
2023-06-16T07:36:19.285Z,13.70
2023-06-16T07:38:47.459Z,13.80
2023-06-16T07:41:15.948Z,14.30
2023-06-16T07:43:44.279Z,14.00
2023-06-16T07:46:12.832Z,13.60
2023-06-16T07:48:41.494Z,14.10
2023-06-16T07:51:09.613Z,13.40
2023-06-16T07:53:37.642Z,13.40
2023-06-16T07:56:05.909Z,12.80
2023-06-16T07:58:33.969Z,13.00
2023-06-16T08:01:02.776Z,13.30
2023-06-16T08:03:32.047Z,12.70
2023-06-16T08:06:00.585Z,11.70
2023-06-16T08:08:28.869Z,11.00
2023-06-16T08:10:59.754Z,11.60
2023-06-16T08:13:27.796Z,11.70
2023-06-16T08:15:56.047Z,12.30
2023-06-16T08:18:25.597Z,12.40
2023-06-16T08:20:53.722Z,12.30
2023-06-16T08:23:21.947Z,12.10
2023-06-16T08:25:51.795Z,11.60
2023-06-16T08:28:19.914Z,11.30
2023-06-16T08:30:48.205Z,12.40
2023-06-16T08:33:17.071Z,12.00
2023-06-16T08:35:45.370Z,12.20
2023-06-16T08:38:13.429Z,11.60
2023-06-16T08:40:41.493Z,11.70
2023-06-16T08:43:12.692Z,11.80
2023-06-16T08:45:41.843Z,11.70
2023-06-16T08:48:12.111Z,11.50
2023-06-16T08:50:41.889Z,11.70
2023-06-16T08:53:12.605Z,11.70
2023-06-16T08:55:44.708Z,11.60
2023-06-16T08:58:14.668Z,11.10
2023-06-16T09:00:45.319Z,11.10
2023-06-16T09:03:14.972Z,11.20
2023-06-16T09:05:43.209Z,11.30
2023-06-16T09:08:12.820Z,11.30
2023-06-16T09:10:41.244Z,10.50
2023-06-16T09:13:09.866Z,10.60
2023-06-16T09:15:38.199Z,10.20
2023-06-16T09:18:08.490Z,9.70
2023-06-16T09:20:40.821Z,8.80
2023-06-16T09:23:10.124Z,8.70
2023-06-16T09:25:39.949Z,8.30
2023-06-16T09:28:10.685Z,8.50
2023-06-16T09:30:43.406Z,8.00
2023-06-16T09:33:12.966Z,8.80
2023-06-16T09:35:42.954Z,8.60
2023-06-16T09:38:11.649Z,7.70
2023-06-16T09:40:40.355Z,8.30
2023-06-16T09:43:11.547Z,7.00
2023-06-16T09:45:40.122Z,7.40
2023-06-16T09:48:11.419Z,7.50
2023-06-16T09:50:41.896Z,7.60
2023-06-16T09:53:10.541Z,7.50
2023-06-16T09:55:40.790Z,7.90
2023-06-16T09:58:09.163Z,7.60
2023-06-16T10:00:37.408Z,7.20
2023-06-16T10:03:09.281Z,7.30
2023-06-16T10:05:41.569Z,6.60
2023-06-16T10:08:11.689Z,8.10
2023-06-16T10:10:44.117Z,6.90
2023-06-16T10:13:12.960Z,6.70
2023-06-16T10:15:44.083Z,7.20
2023-06-16T10:18:16.618Z,7.00
2023-06-16T10:20:47.288Z,7.00
2023-06-16T10:23:16.617Z,7.00
2023-06-16T10:25:45.857Z,6.60
2023-06-16T10:28:15.765Z,6.80
2023-06-16T10:30:45.429Z,7.00
2023-06-16T10:33:19.225Z,7.40
2023-06-16T10:35:57.597Z,6.90
2023-06-16T10:38:36.401Z,7.40
2023-06-16T10:41:07.598Z,7.10
2023-06-16T10:43:35.738Z,7.40
2023-06-16T10:46:15.096Z,7.70
2023-06-16T10:49:12.359Z,6.90
2023-06-16T10:51:51.741Z,6.40
2023-06-16T10:54:38.315Z,6.80
2023-06-16T10:57:14.011Z,6.40
2023-06-16T11:00:02.896Z,6.60
2023-06-16T11:02:34.446Z,6.60
2023-06-16T11:05:08.757Z,6.60
2023-06-16T11:08:07.307Z,6.50
2023-06-16T11:11:15.234Z,6.60
2023-06-16T11:13:43.610Z,6.10
2023-06-16T11:16:11.977Z,6.20
2023-06-16T11:18:40.303Z,5.90
2023-06-16T11:21:12.535Z,6.10
2023-06-16T11:23:45.600Z,6.10
2023-06-16T11:26:19.896Z,5.90
2023-06-16T11:28:49.769Z,5.60
2023-06-16T11:31:20.705Z,5.80
2023-06-16T11:33:49.063Z,6.00
2023-06-16T11:36:22.730Z,6.60
2023-06-16T11:38:52.799Z,6.50
2023-06-16T11:41:23.459Z,5.90
2023-06-16T11:43:52.913Z,5.90
2023-06-16T11:46:24.439Z,6.60
2023-06-16T11:48:53.509Z,6.20
2023-06-16T11:51:23.622Z,6.10
2023-06-16T11:53:52.379Z,5.60
2023-06-16T11:56:24.680Z,5.40
2023-06-16T11:58:54.406Z,5.00
2023-06-16T12:01:23.588Z,5.60
2023-06-16T12:04:04.705Z,5.20
2023-06-16T12:06:37.242Z,5.40
2023-06-16T12:09:05.468Z,5.70
2023-06-16T12:11:35.748Z,5.80
2023-06-16T12:14:03.910Z,5.80
2023-06-16T12:16:32.164Z,5.30
2023-06-16T12:19:01.154Z,5.20
2023-06-16T12:21:30.336Z,5.00
2023-06-16T12:24:00.293Z,5.20
2023-06-16T12:26:31.832Z,5.10
2023-06-16T12:29:03.388Z,4.90
2023-06-16T12:31:33.215Z,5.50
2023-06-16T12:34:01.446Z,5.20
2023-06-16T12:36:29.937Z,5.20
2023-06-16T12:39:00.489Z,5.60
2023-06-16T12:41:30.399Z,5.40
2023-06-16T12:43:58.629Z,5.80
2023-06-16T12:46:26.859Z,5.70
2023-06-16T12:48:55.022Z,5.50
2023-06-16T12:51:23.663Z,5.50
2023-06-16T12:53:51.841Z,5.50
2023-06-16T12:56:20.113Z,5.90
2023-06-16T12:58:48.256Z,5.20
2023-06-16T13:01:16.382Z,5.20
2023-06-16T13:03:48.456Z,4.90
2023-06-16T13:06:20.468Z,5.10
2023-06-16T13:08:49.652Z,5.10
2023-06-16T13:11:19.274Z,5.20
2023-06-16T13:13:47.509Z,5.30
2023-06-16T13:16:18.356Z,4.90
2023-06-16T13:18:46.990Z,5.10
2023-06-16T13:21:16.511Z,5.00
2023-06-16T13:23:44.857Z,5.20
2023-06-16T13:26:15.082Z,4.70
2023-06-16T13:28:43.394Z,4.30
2023-06-16T13:31:13.583Z,4.40
2023-06-16T13:33:43.506Z,4.40
2023-06-16T13:36:19.655Z,4.60
2023-06-16T13:38:48.762Z,4.40
2023-06-16T13:41:17.018Z,5.10
2023-06-16T13:43:48.166Z,6.40
2023-06-16T13:46:17.793Z,7.00
2023-06-16T13:48:46.681Z,5.70
2023-06-16T13:51:15.254Z,5.70
2023-06-16T13:53:46.890Z,6.10
2023-06-16T13:56:15.008Z,5.90
2023-06-16T13:58:43.131Z,6.70
2023-06-16T14:01:11.482Z,5.90
2023-06-16T14:03:39.716Z,3.90
2023-06-16T14:06:08.159Z,4.00
2023-06-16T14:08:36.586Z,3.60
2023-06-16T14:11:04.667Z,3.60
2023-06-16T14:13:32.722Z,4.40
2023-06-16T14:16:00.857Z,6.10
2023-06-16T14:18:28.874Z,6.70
2023-06-16T14:20:57.017Z,6.80
2023-06-16T14:23:25.178Z,6.30
2023-06-16T14:25:53.386Z,6.20
2023-06-16T14:28:21.452Z,7.00
2023-06-16T14:30:49.614Z,6.80
2023-06-16T14:33:17.889Z,6.40
2023-06-16T14:35:46.133Z,6.50
2023-06-16T14:38:15.134Z,6.50
2023-06-16T14:40:43.435Z,6.10
2023-06-16T14:43:11.578Z,6.40
2023-06-16T14:45:39.779Z,6.20
2023-06-16T14:48:07.981Z,6.00
2023-06-16T14:50:36.262Z,6.10
2023-06-16T14:53:04.482Z,6.10
2023-06-16T14:55:32.754Z,6.00
2023-06-16T14:58:01.177Z,6.20
2023-06-16T15:00:29.309Z,6.30
2023-06-16T15:02:57.595Z,6.30
2023-06-16T15:05:25.909Z,6.60
2023-06-16T15:07:54.041Z,6.40
2023-06-16T15:10:22.727Z,6.50
2023-06-16T15:12:51.330Z,6.60
2023-06-16T15:15:19.573Z,5.80
2023-06-16T15:17:47.674Z,6.10
2023-06-16T15:20:15.967Z,6.30
2023-06-16T15:22:44.094Z,6.10
2023-06-16T15:25:12.885Z,6.70
2023-06-16T15:27:41.061Z,6.10
2023-06-16T15:30:09.712Z,6.50
2023-06-16T15:32:39.072Z,6.40
2023-06-16T15:35:08.047Z,6.50
2023-06-16T15:37:36.194Z,6.40
2023-06-16T15:40:05.001Z,6.20
2023-06-16T15:42:33.152Z,6.20
2023-06-16T15:45:01.582Z,6.10
2023-06-16T15:47:29.705Z,6.30
2023-06-16T15:49:57.940Z,6.20
2023-06-16T15:52:26.151Z,6.40
2023-06-16T15:54:54.377Z,5.90
2023-06-16T15:57:23.108Z,6.00
2023-06-16T15:59:51.413Z,6.20
2023-06-16T16:02:19.680Z,6.60
2023-06-16T16:04:47.933Z,6.50
2023-06-16T16:07:16.415Z,6.40
2023-06-16T16:09:44.692Z,6.30
2023-06-16T16:12:13.317Z,6.10
2023-06-16T16:14:41.467Z,6.00
2023-06-16T16:17:09.695Z,5.80
2023-06-16T16:19:37.999Z,6.40
2023-06-16T16:22:07.602Z,6.10
2023-06-16T16:24:35.910Z,6.00
2023-06-16T16:27:05.077Z,5.80
2023-06-16T16:29:34.475Z,5.70
2023-06-16T16:32:03.260Z,6.10
2023-06-16T16:34:31.981Z,6.10
2023-06-16T16:37:03.433Z,6.10
2023-06-16T16:39:32.605Z,5.50
2023-06-16T16:42:01.080Z,6.00
2023-06-16T16:44:31.297Z,5.90
2023-06-16T16:47:01.824Z,5.60
2023-06-16T16:49:30.510Z,5.70
2023-06-16T16:51:58.595Z,5.90
2023-06-16T16:54:26.971Z,5.90
2023-06-16T16:56:55.132Z,5.90
2023-06-16T16:59:27.455Z,6.00
2023-06-16T17:01:55.651Z,6.60
2023-06-16T17:04:25.254Z,6.00
2023-06-16T17:06:54.557Z,5.90
2023-06-16T17:09:23.194Z,5.70
2023-06-16T17:11:51.337Z,6.10
2023-06-16T17:14:19.510Z,6.80
2023-06-16T17:16:47.582Z,6.90
2023-06-16T17:19:15.757Z,6.60
2023-06-16T17:21:43.901Z,5.60
2023-06-16T17:24:12.109Z,5.90
2023-06-16T17:26:40.286Z,6.30
2023-06-16T17:29:08.654Z,5.70
2023-06-16T17:31:36.765Z,6.20
2023-06-16T17:34:04.900Z,6.30
2023-06-16T17:36:33.060Z,6.50
2023-06-16T17:39:01.240Z,6.10
2023-06-16T17:41:29.615Z,6.00
2023-06-16T17:44:04.869Z,6.10
2023-06-16T17:46:36.833Z,6.40
2023-06-16T17:49:08.355Z,6.90
2023-06-16T17:51:37.803Z,6.50
2023-06-16T17:54:06.594Z,7.10
2023-06-16T17:56:34.834Z,7.20
2023-06-16T17:59:03.004Z,6.90
2023-06-16T18:01:31.585Z,6.70
2023-06-16T18:04:00.096Z,6.70
2023-06-16T18:06:28.341Z,6.80
2023-06-16T18:08:57.639Z,6.90
2023-06-16T18:11:26.122Z,6.80
2023-06-16T18:13:54.355Z,7.00
2023-06-16T18:16:23.119Z,7.40
2023-06-16T18:18:51.763Z,6.80
2023-06-16T18:21:19.939Z,6.40
2023-06-16T18:23:48.265Z,6.50
2023-06-16T18:26:17.820Z,6.70
2023-06-16T18:28:46.012Z,6.90
2023-06-16T18:31:14.444Z,6.80
2023-06-16T18:33:42.546Z,7.20
2023-06-16T18:36:11.542Z,6.90
2023-06-16T18:38:46.316Z,7.00
2023-06-16T18:41:14.545Z,7.00
2023-06-16T18:43:42.620Z,7.00
2023-06-16T18:46:11.356Z,7.00
2023-06-16T18:48:39.545Z,7.10
2023-06-16T18:51:08.424Z,6.90
2023-06-16T18:53:36.743Z,6.70
2023-06-16T18:56:05.123Z,6.80
2023-06-16T18:58:33.337Z,6.70
2023-06-16T19:01:01.465Z,6.90
2023-06-16T19:03:29.733Z,7.40
2023-06-16T19:05:58.123Z,7.50
2023-06-16T19:08:26.186Z,7.00
2023-06-16T19:10:54.158Z,7.00
2023-06-16T19:13:22.340Z,6.50
2023-06-16T19:15:50.705Z,6.80
2023-06-16T19:18:18.949Z,6.60
2023-06-16T19:20:47.056Z,7.00
2023-06-16T19:23:17.494Z,6.90
2023-06-16T19:25:45.666Z,6.90
2023-06-16T19:28:16.525Z,7.30
2023-06-16T19:30:44.764Z,7.20
2023-06-16T19:33:15.409Z,6.70
2023-06-16T19:35:43.777Z,6.90
2023-06-16T19:38:11.955Z,7.00
2023-06-16T19:40:40.114Z,6.80
2023-06-16T19:43:08.288Z,7.70
2023-06-16T19:45:36.663Z,7.10
2023-06-16T19:48:05.960Z,7.20
2023-06-16T19:50:34.161Z,7.00
2023-06-16T19:53:02.410Z,7.20
2023-06-16T19:55:37.499Z,7.10
2023-06-16T19:58:18.311Z,7.30
2023-06-16T20:00:46.929Z,7.40
2023-06-16T20:03:15.707Z,7.40
2023-06-16T20:05:43.926Z,7.40
2023-06-16T20:08:12.033Z,7.20
2023-06-16T20:10:41.334Z,7.50
2023-06-16T20:13:09.805Z,7.50
2023-06-16T20:15:38.407Z,7.90
2023-06-16T20:18:07.240Z,7.20
2023-06-16T20:20:35.657Z,7.60
2023-06-16T20:23:04.684Z,7.10
2023-06-16T20:25:32.920Z,7.70
2023-06-16T20:28:01.204Z,7.60
2023-06-16T20:30:29.488Z,7.70
2023-06-16T20:32:57.952Z,7.50
2023-06-16T20:35:27.258Z,7.90
2023-06-16T20:37:58.694Z,8.00
2023-06-16T20:40:28.543Z,7.90
2023-06-16T20:42:57.702Z,7.70
2023-06-16T20:45:26.259Z,7.30
2023-06-16T20:47:55.015Z,7.50
2023-06-16T20:50:28.597Z,7.10
2023-06-16T20:52:57.994Z,7.10
2023-06-16T20:57:57.382Z,6.80
2023-06-16T21:00:28.784Z,6.60
2023-06-16T21:02:57.221Z,6.80
2023-06-16T21:05:30.377Z,6.50
2023-06-16T21:07:59.426Z,6.30
2023-06-16T21:10:27.903Z,6.50
2023-06-16T21:12:56.400Z,6.40
2023-06-16T21:15:24.456Z,6.10
2023-06-16T21:17:52.658Z,6.40
2023-06-16T21:20:21.819Z,6.20
2023-06-16T21:22:52.201Z,6.50
2023-06-16T21:25:20.606Z,6.30
2023-06-16T21:27:48.782Z,6.40
2023-06-16T21:30:17.335Z,6.40
2023-06-16T21:32:45.656Z,6.10
2023-06-16T21:35:13.815Z,6.10
2023-06-16T21:37:41.993Z,6.50
2023-06-16T21:40:12.031Z,6.20
2023-06-16T21:42:42.343Z,6.20
2023-06-16T21:45:13.784Z,6.00
2023-06-16T21:47:42.503Z,6.30
2023-06-16T21:50:10.755Z,6.60
2023-06-16T21:52:39.037Z,6.90
2023-06-16T21:55:08.441Z,6.50
2023-06-16T21:57:37.122Z,6.50
2023-06-16T22:00:10.174Z,6.50
2023-06-16T22:02:39.255Z,6.40
2023-06-16T22:05:08.732Z,6.60
2023-06-16T22:07:40.456Z,6.50
2023-06-16T22:10:10.126Z,6.20
2023-06-16T22:12:38.634Z,6.70
2023-06-16T22:15:07.373Z,6.80
2023-06-16T22:17:36.801Z,6.70
2023-06-16T22:20:07.297Z,7.70
2023-06-16T22:22:35.725Z,6.90
2023-06-16T22:25:04.416Z,6.90
2023-06-16T22:27:33.421Z,6.50
2023-06-16T22:30:01.629Z,6.40
2023-06-16T22:32:30.191Z,6.10
2023-06-16T22:34:58.382Z,6.50
2023-06-16T22:37:26.504Z,7.10
2023-06-16T22:39:54.776Z,6.40
2023-06-16T22:42:24.607Z,6.10
2023-06-16T22:44:52.806Z,6.30
2023-06-16T22:47:21.139Z,6.60
2023-06-16T22:49:49.202Z,5.90
2023-06-16T22:52:17.643Z,6.30
2023-06-16T22:54:45.958Z,6.10
2023-06-16T22:57:14.150Z,6.20
2023-06-16T22:59:42.148Z,6.30
2023-06-16T23:02:10.276Z,5.90
2023-06-16T23:04:38.454Z,5.80
2023-06-16T23:07:06.624Z,5.90
2023-06-16T23:09:34.899Z,6.40
2023-06-16T23:12:03.077Z,6.50
2023-06-16T23:14:31.634Z,6.40
2023-06-16T23:16:59.830Z,6.40
2023-06-16T23:19:27.963Z,6.00
2023-06-16T23:21:56.582Z,6.50
2023-06-16T23:24:24.684Z,6.30
2023-06-16T23:26:54.928Z,6.60
2023-06-16T23:29:23.475Z,6.70
2023-06-16T23:31:51.472Z,6.70
2023-06-16T23:34:20.548Z,6.30
2023-06-16T23:36:48.603Z,6.60
2023-06-16T23:39:16.872Z,6.80
2023-06-16T23:41:45.147Z,6.60
2023-06-16T23:44:13.414Z,7.10
2023-06-16T23:46:41.505Z,6.60
2023-06-16T23:49:09.555Z,6.50
2023-06-16T23:51:37.727Z,6.40
2023-06-16T23:54:06.188Z,6.70
2023-06-16T23:56:34.276Z,6.70
2023-06-16T23:59:02.466Z,6.50
